TRA9X EHEH-LIEO
Flight info
| Callsign | TRA9X |
|---|---|
| Flight time | 1h 56m |
| Altitude | 35000 |
| Route | LNO Z283 RITAX UT27 ROUSY DCT GTQ DCT POGOL DCT LASAT DCT DEVDI DCT RIPUS DCT GERSA DCT SOSON DCT ODINA DCT MONEB DCT UPDIN DCT MAMAR DCT GITRI |
| Aircraft | A21N/M-SBDE2E3FGHIJ1J5M1P2RWXYZ/LB1D1G1 |
Departure
| Time | 2026-05-07 13:19 |
|---|---|
| Airport | Eindhoven Airport (EHEH) |
Arrival
| Time | 2026-05-07 15:15 |
|---|---|
| Airport | Olbia Costa Smeralda Airport (LIEO) |
| Time | Latitude | Longitude | Altitude | Speed | Heading |
|---|---|---|---|---|---|
| 2026-05-07 12:47 | 51.45754 | 5.38934 | 84 ft | 0 kts | 123° |
| 2026-05-07 13:01 | 51.45760 | 5.38919 | 84 ft | 2 kts | 123° |
| 2026-05-07 13:01 | 51.45768 | 5.38899 | 84 ft | 2 kts | 124° |
| 2026-05-07 13:02 | 51.45782 | 5.38875 | 84 ft | 2 kts | 150° |
| 2026-05-07 13:02 | 51.45791 | 5.38868 | 84 ft | 2 kts | 161° |
| 2026-05-07 13:02 | 51.45806 | 5.38864 | 84 ft | 2 kts | 181° |
| 2026-05-07 13:02 | 51.45826 | 5.38870 | 84 ft | 2 kts | 206° |
| 2026-05-07 13:03 | 51.45831 | 5.38875 | 84 ft | 0 kts | 213° |
| 2026-05-07 13:03 | 51.45836 | 5.38881 | 84 ft | 0 kts | 215° |
| 2026-05-07 13:07 | 51.45824 | 5.38867 | 84 ft | 4 kts | 216° |
| 2026-05-07 13:07 | 51.45797 | 5.38830 | 84 ft | 5 kts | 236° |
| 2026-05-07 13:08 | 51.45805 | 5.38748 | 84 ft | 6 kts | 302° |
| 2026-05-07 13:08 | 51.45817 | 5.38719 | 84 ft | 0 kts | 304° |
| 2026-05-07 13:08 | 51.45818 | 5.38717 | 84 ft | 0 kts | 304° |
| 2026-05-07 13:09 | 51.45824 | 5.38702 | 84 ft | 3 kts | 304° |
| 2026-05-07 13:09 | 51.45847 | 5.38650 | 84 ft | 7 kts | 304° |
| 2026-05-07 13:09 | 51.45887 | 5.38560 | 84 ft | 12 kts | 306° |
| 2026-05-07 13:09 | 51.45946 | 5.38433 | 84 ft | 15 kts | 304° |
| 2026-05-07 13:10 | 51.45987 | 5.38338 | 84 ft | 7 kts | 303° |
| 2026-05-07 13:10 | 51.45989 | 5.38332 | 84 ft | 0 kts | 303° |
| 2026-05-07 13:10 | 51.45990 | 5.38329 | 84 ft | 0 kts | 303° |
| 2026-05-07 13:11 | 51.45994 | 5.38296 | 84 ft | 5 kts | 257° |
| 2026-05-07 13:12 | 51.45974 | 5.38253 | 84 ft | 9 kts | 222° |
| 2026-05-07 13:12 | 51.45914 | 5.38182 | 84 ft | 11 kts | 215° |
| 2026-05-07 13:12 | 51.45847 | 5.38107 | 84 ft | 12 kts | 214° |
| 2026-05-07 13:12 | 51.45777 | 5.38029 | 84 ft | 12 kts | 214° |
| 2026-05-07 13:13 | 51.45704 | 5.37947 | 84 ft | 13 kts | 215° |
| 2026-05-07 13:13 | 51.45628 | 5.37861 | 84 ft | 13 kts | 213° |
| 2026-05-07 13:13 | 51.45547 | 5.37773 | 84 ft | 14 kts | 214° |
| 2026-05-07 13:13 | 51.45460 | 5.37673 | 84 ft | 15 kts | 215° |
| 2026-05-07 13:14 | 51.45367 | 5.37569 | 84 ft | 16 kts | 215° |
| 2026-05-07 13:14 | 51.45269 | 5.37459 | 84 ft | 17 kts | 215° |
| 2026-05-07 13:14 | 51.45168 | 5.37347 | 84 ft | 18 kts | 214° |
| 2026-05-07 13:14 | 51.45060 | 5.37225 | 84 ft | 21 kts | 215° |
| 2026-05-07 13:15 | 51.44924 | 5.37070 | 84 ft | 24 kts | 214° |
| 2026-05-07 13:15 | 51.44788 | 5.36919 | 84 ft | 23 kts | 213° |
| 2026-05-07 13:15 | 51.44659 | 5.36777 | 84 ft | 22 kts | 215° |
| 2026-05-07 13:15 | 51.44535 | 5.36639 | 84 ft | 21 kts | 215° |
| 2026-05-07 13:16 | 51.44416 | 5.36503 | 84 ft | 20 kts | 214° |
| 2026-05-07 13:16 | 51.44300 | 5.36373 | 84 ft | 19 kts | 213° |
| 2026-05-07 13:16 | 51.44192 | 5.36267 | 84 ft | 14 kts | 186° |
| 2026-05-07 13:16 | 51.44170 | 5.36277 | 84 ft | 0 kts | 139° |
| 2026-05-07 13:17 | 51.44163 | 5.36287 | 84 ft | 3 kts | 133° |
| 2026-05-07 13:17 | 51.44138 | 5.36346 | 84 ft | 9 kts | 124° |
| 2026-05-07 13:18 | 51.44119 | 5.36444 | 84 ft | 9 kts | 52° |
| 2026-05-07 13:18 | 51.44139 | 5.36471 | 84 ft | 0 kts | 34° |
| 2026-05-07 13:18 | 51.44275 | 5.36625 | 84 ft | 62 kts | 34° |
| 2026-05-07 13:18 | 51.44841 | 5.37259 | 84 ft | 133 kts | 34° |
| 2026-05-07 13:19 | 51.45750 | 5.38273 | 184 ft | 178 kts | 33° |
| 2026-05-07 13:19 | 51.46767 | 5.39377 | 886 ft | 178 kts | 33° |
| 2026-05-07 13:19 | 51.47799 | 5.40490 | 1648 ft | 182 kts | 34° |
| 2026-05-07 13:19 | 51.48833 | 5.41650 | 2384 ft | 185 kts | 34° |
| 2026-05-07 13:20 | 51.49923 | 5.42872 | 2900 ft | 198 kts | 34° |
| 2026-05-07 13:20 | 51.51009 | 5.44331 | 3364 ft | 215 kts | 49° |
| 2026-05-07 13:20 | 51.51537 | 5.46657 | 3731 ft | 240 kts | 89° |
| 2026-05-07 13:20 | 51.51174 | 5.49239 | 4642 ft | 240 kts | 105° |
| 2026-05-07 13:21 | 51.50652 | 5.51776 | 5423 ft | 241 kts | 107° |
| 2026-05-07 13:21 | 51.50126 | 5.54317 | 6268 ft | 242 kts | 106° |
| 2026-05-07 13:21 | 51.49620 | 5.56880 | 7095 ft | 244 kts | 104° |
| 2026-05-07 13:21 | 51.49207 | 5.59545 | 7774 ft | 251 kts | 101° |
| 2026-05-07 13:22 | 51.48814 | 5.62388 | 8260 ft | 268 kts | 101° |
| 2026-05-07 13:22 | 51.48112 | 5.65271 | 8777 ft | 284 kts | 124° |
| 2026-05-07 13:22 | 51.46694 | 5.67491 | 9482 ft | 288 kts | 145° |
| 2026-05-07 13:22 | 51.45002 | 5.69275 | 9909 ft | 290 kts | 147° |
| 2026-05-07 13:23 | 51.43299 | 5.71020 | 10027 ft | 290 kts | 147° |
| 2026-05-07 13:23 | 51.41606 | 5.72764 | 10033 ft | 291 kts | 147° |
| 2026-05-07 13:23 | 51.39870 | 5.74568 | 10265 ft | 300 kts | 147° |
| 2026-05-07 13:23 | 51.38061 | 5.76462 | 10621 ft | 319 kts | 147° |
| 2026-05-07 13:24 | 51.36183 | 5.78436 | 11138 ft | 331 kts | 147° |
| 2026-05-07 13:24 | 51.34247 | 5.80473 | 11876 ft | 335 kts | 147° |
| 2026-05-07 13:24 | 51.32294 | 5.82525 | 12628 ft | 339 kts | 147° |
| 2026-05-07 13:24 | 51.30318 | 5.84598 | 13352 ft | 342 kts | 147° |
| 2026-05-07 13:25 | 51.28318 | 5.86694 | 14049 ft | 347 kts | 147° |
| 2026-05-07 13:25 | 51.26260 | 5.88733 | 14722 ft | 350 kts | 153° |
| 2026-05-07 13:25 | 51.23992 | 5.90206 | 15404 ft | 353 kts | 164° |
| 2026-05-07 13:25 | 51.21601 | 5.90997 | 16080 ft | 355 kts | 172° |
| 2026-05-07 13:26 | 51.19160 | 5.91517 | 16750 ft | 358 kts | 174° |
| 2026-05-07 13:26 | 51.16662 | 5.92010 | 17414 ft | 361 kts | 174° |
| 2026-05-07 13:26 | 51.14166 | 5.92511 | 18047 ft | 364 kts | 174° |
| 2026-05-07 13:26 | 51.11636 | 5.92963 | 18669 ft | 367 kts | 178° |
| 2026-05-07 13:27 | 51.09075 | 5.92879 | 19280 ft | 369 kts | 187° |
| 2026-05-07 13:27 | 51.06563 | 5.92166 | 19881 ft | 370 kts | 195° |
| 2026-05-07 13:27 | 51.04068 | 5.91096 | 20483 ft | 373 kts | 197° |
| 2026-05-07 13:27 | 51.01548 | 5.89961 | 21065 ft | 376 kts | 197° |
| 2026-05-07 13:28 | 50.99012 | 5.88817 | 21627 ft | 379 kts | 197° |
| 2026-05-07 13:28 | 50.96476 | 5.87680 | 22171 ft | 382 kts | 197° |
| 2026-05-07 13:28 | 50.93901 | 5.86534 | 22705 ft | 385 kts | 197° |
| 2026-05-07 13:28 | 50.91281 | 5.85373 | 23229 ft | 388 kts | 197° |
| 2026-05-07 13:29 | 50.88687 | 5.84225 | 23735 ft | 391 kts | 197° |
| 2026-05-07 13:29 | 50.86048 | 5.83061 | 24238 ft | 394 kts | 197° |
| 2026-05-07 13:29 | 50.83399 | 5.81896 | 24727 ft | 397 kts | 197° |
| 2026-05-07 13:29 | 50.80706 | 5.80714 | 25193 ft | 400 kts | 197° |
| 2026-05-07 13:30 | 50.78014 | 5.79534 | 25640 ft | 403 kts | 197° |
| 2026-05-07 13:30 | 50.75318 | 5.78353 | 26060 ft | 406 kts | 197° |
| 2026-05-07 13:30 | 50.72581 | 5.77155 | 26476 ft | 408 kts | 197° |
| 2026-05-07 13:30 | 50.69832 | 5.75953 | 26869 ft | 411 kts | 197° |
| 2026-05-07 13:31 | 50.67073 | 5.74749 | 27250 ft | 413 kts | 197° |
| 2026-05-07 13:31 | 50.64295 | 5.73538 | 27624 ft | 416 kts | 197° |
| 2026-05-07 13:31 | 50.61512 | 5.72412 | 27980 ft | 419 kts | 193° |
| 2026-05-07 13:31 | 50.58616 | 5.71764 | 28328 ft | 422 kts | 186° |
| 2026-05-07 13:32 | 50.55650 | 5.71686 | 28670 ft | 426 kts | 179° |
| 2026-05-07 13:32 | 50.52717 | 5.72115 | 29012 ft | 428 kts | 174° |
| 2026-05-07 13:32 | 50.49760 | 5.72684 | 29345 ft | 430 kts | 174° |
| 2026-05-07 13:32 | 50.46759 | 5.73280 | 29658 ft | 433 kts | 174° |
| 2026-05-07 13:33 | 50.43790 | 5.73865 | 29950 ft | 435 kts | 174° |
| 2026-05-07 13:33 | 50.40783 | 5.74450 | 30222 ft | 438 kts | 174° |
| 2026-05-07 13:33 | 50.37758 | 5.75032 | 30492 ft | 440 kts | 174° |
| 2026-05-07 13:33 | 50.34699 | 5.75618 | 30769 ft | 443 kts | 174° |
| 2026-05-07 13:34 | 50.31672 | 5.76194 | 31030 ft | 445 kts | 174° |
| 2026-05-07 13:34 | 50.25523 | 5.77362 | 31632 ft | 445 kts | 174° |
| 2026-05-07 13:34 | 50.22428 | 5.77949 | 31979 ft | 444 kts | 174° |
| 2026-05-07 13:35 | 50.19395 | 5.78523 | 32294 ft | 444 kts | 174° |
| 2026-05-07 13:35 | 50.16318 | 5.79105 | 32593 ft | 443 kts | 174° |
| 2026-05-07 13:35 | 50.13267 | 5.79680 | 32877 ft | 443 kts | 174° |
| 2026-05-07 13:35 | 50.10193 | 5.80386 | 33148 ft | 443 kts | 171° |
| 2026-05-07 13:36 | 50.07169 | 5.81350 | 33397 ft | 444 kts | 168° |
| 2026-05-07 13:36 | 50.04142 | 5.82606 | 33597 ft | 446 kts | 165° |
| 2026-05-07 13:36 | 50.01208 | 5.84088 | 33768 ft | 448 kts | 162° |
| 2026-05-07 13:36 | 49.98230 | 5.85637 | 33955 ft | 450 kts | 162° |
| 2026-05-07 13:37 | 49.95294 | 5.87159 | 34140 ft | 451 kts | 162° |
| 2026-05-07 13:37 | 49.92314 | 5.88700 | 34305 ft | 452 kts | 162° |
| 2026-05-07 13:37 | 49.89326 | 5.90242 | 34469 ft | 452 kts | 163° |
| 2026-05-07 13:37 | 49.86351 | 5.91773 | 34617 ft | 453 kts | 163° |
| 2026-05-07 13:38 | 49.83325 | 5.93330 | 34757 ft | 454 kts | 163° |
| 2026-05-07 13:38 | 49.80342 | 5.94861 | 34887 ft | 455 kts | 163° |
| 2026-05-07 13:38 | 49.77331 | 5.96403 | 35015 ft | 456 kts | 163° |
| 2026-05-07 13:39 | 49.71293 | 5.99492 | 35028 ft | 457 kts | 163° |
| 2026-05-07 13:39 | 49.65282 | 6.02559 | 35025 ft | 457 kts | 163° |
| 2026-05-07 13:40 | 49.59239 | 6.05634 | 35028 ft | 457 kts | 163° |
| 2026-05-07 13:40 | 49.53231 | 6.08898 | 35035 ft | 458 kts | 159° |
| 2026-05-07 13:41 | 49.47494 | 6.13131 | 35031 ft | 459 kts | 152° |
| 2026-05-07 13:41 | 49.42111 | 6.18417 | 35033 ft | 461 kts | 144° |
| 2026-05-07 13:42 | 49.37086 | 6.24526 | 35026 ft | 461 kts | 141° |
| 2026-05-07 13:42 | 49.32119 | 6.30689 | 35017 ft | 460 kts | 141° |
| 2026-05-07 13:43 | 49.27132 | 6.36839 | 35015 ft | 461 kts | 142° |
| 2026-05-07 13:43 | 49.21622 | 6.41809 | 35019 ft | 459 kts | 154° |
| 2026-05-07 13:44 | 49.15944 | 6.46205 | 35018 ft | 459 kts | 154° |
| 2026-05-07 13:44 | 49.10213 | 6.50666 | 35023 ft | 460 kts | 154° |
| 2026-05-07 13:45 | 49.04541 | 6.55110 | 35018 ft | 459 kts | 153° |
| 2026-05-07 13:45 | 48.98802 | 6.59609 | 35021 ft | 459 kts | 153° |
| 2026-05-07 13:46 | 48.93131 | 6.64046 | 35020 ft | 459 kts | 153° |
| 2026-05-07 13:46 | 48.87458 | 6.68476 | 35020 ft | 460 kts | 154° |
| 2026-05-07 13:47 | 48.81793 | 6.72885 | 35028 ft | 460 kts | 154° |
| 2026-05-07 13:47 | 48.76126 | 6.77313 | 35029 ft | 460 kts | 154° |
| 2026-05-07 13:48 | 48.70421 | 6.81747 | 35024 ft | 461 kts | 154° |
| 2026-05-07 13:48 | 48.64713 | 6.86162 | 35025 ft | 461 kts | 154° |
| 2026-05-07 13:49 | 48.59028 | 6.90545 | 35021 ft | 461 kts | 154° |
| 2026-05-07 13:49 | 48.53285 | 6.94961 | 35015 ft | 462 kts | 154° |
| 2026-05-07 13:50 | 48.47567 | 6.99348 | 35010 ft | 462 kts | 154° |
| 2026-05-07 13:50 | 48.40906 | 7.04442 | 35013 ft | 462 kts | 154° |
| 2026-05-07 13:51 | 48.36120 | 7.08095 | 35011 ft | 462 kts | 154° |
| 2026-05-07 13:51 | 48.30377 | 7.12470 | 35014 ft | 462 kts | 154° |
| 2026-05-07 13:52 | 48.24654 | 7.16818 | 35011 ft | 463 kts | 154° |
| 2026-05-07 13:52 | 48.18948 | 7.21141 | 35019 ft | 463 kts | 155° |
| 2026-05-07 13:53 | 48.13177 | 7.25502 | 35014 ft | 463 kts | 155° |
| 2026-05-07 13:53 | 48.07455 | 7.29812 | 35024 ft | 462 kts | 155° |
| 2026-05-07 13:54 | 48.01739 | 7.34108 | 35018 ft | 462 kts | 155° |
| 2026-05-07 13:54 | 47.95995 | 7.38412 | 35018 ft | 463 kts | 155° |
| 2026-05-07 13:55 | 47.90229 | 7.42722 | 35013 ft | 463 kts | 155° |
| 2026-05-07 13:55 | 47.84505 | 7.46993 | 35008 ft | 463 kts | 155° |
| 2026-05-07 13:56 | 47.78831 | 7.51569 | 35004 ft | 465 kts | 149° |
| 2026-05-07 13:56 | 47.73640 | 7.57374 | 35004 ft | 468 kts | 139° |
| 2026-05-07 13:57 | 47.69167 | 7.64333 | 35006 ft | 471 kts | 130° |
| 2026-05-07 13:57 | 47.65251 | 7.72117 | 35009 ft | 472 kts | 127° |
| 2026-05-07 13:58 | 47.61385 | 7.79960 | 35004 ft | 472 kts | 128° |
| 2026-05-07 13:58 | 47.57496 | 7.87782 | 34995 ft | 472 kts | 128° |
| 2026-05-07 13:59 | 47.53621 | 7.95533 | 34997 ft | 472 kts | 128° |
| 2026-05-07 13:59 | 47.49704 | 8.03338 | 34997 ft | 471 kts | 128° |
| 2026-05-07 14:00 | 47.45826 | 8.11042 | 35004 ft | 471 kts | 128° |
| 2026-05-07 14:00 | 47.41900 | 8.18798 | 35002 ft | 472 kts | 128° |
| 2026-05-07 14:01 | 47.37958 | 8.26579 | 35007 ft | 472 kts | 128° |
| 2026-05-07 14:01 | 47.34036 | 8.34305 | 35014 ft | 473 kts | 128° |
| 2026-05-07 14:02 | 47.29930 | 8.41862 | 35009 ft | 470 kts | 137° |
| 2026-05-07 14:02 | 47.24807 | 8.47548 | 35017 ft | 463 kts | 154° |
| 2026-05-07 14:03 | 47.18843 | 8.50859 | 35025 ft | 456 kts | 171° |
| 2026-05-07 14:03 | 47.12599 | 8.52024 | 35021 ft | 452 kts | 178° |
| 2026-05-07 14:04 | 47.06340 | 8.52881 | 35031 ft | 452 kts | 178° |
| 2026-05-07 14:04 | 47.00093 | 8.53782 | 35031 ft | 452 kts | 178° |
| 2026-05-07 14:05 | 46.93873 | 8.54679 | 35048 ft | 451 kts | 178° |
| 2026-05-07 14:05 | 46.87619 | 8.55579 | 35049 ft | 451 kts | 178° |
| 2026-05-07 14:06 | 46.81410 | 8.56467 | 35054 ft | 451 kts | 178° |
| 2026-05-07 14:06 | 46.75158 | 8.57363 | 35056 ft | 451 kts | 178° |
| 2026-05-07 14:07 | 46.68940 | 8.58252 | 35051 ft | 451 kts | 178° |
| 2026-05-07 14:07 | 46.62712 | 8.59139 | 35031 ft | 450 kts | 178° |
| 2026-05-07 14:08 | 46.56507 | 8.60020 | 35024 ft | 450 kts | 179° |
| 2026-05-07 14:08 | 46.50279 | 8.60904 | 35022 ft | 450 kts | 179° |
| 2026-05-07 14:09 | 46.44024 | 8.61788 | 35024 ft | 450 kts | 179° |
| 2026-05-07 14:09 | 46.37836 | 8.62661 | 35029 ft | 449 kts | 179° |
| 2026-05-07 14:10 | 46.31623 | 8.63537 | 35035 ft | 449 kts | 179° |
| 2026-05-07 14:10 | 46.25404 | 8.64409 | 35045 ft | 449 kts | 179° |
| 2026-05-07 14:11 | 46.19193 | 8.65281 | 35042 ft | 449 kts | 180° |
| 2026-05-07 14:11 | 46.12980 | 8.66225 | 35037 ft | 450 kts | 178° |
| 2026-05-07 14:11 | 46.09888 | 8.66975 | 34913 ft | 452 kts | 174° |
| 2026-05-07 14:12 | 46.06833 | 8.67977 | 34966 ft | 455 kts | 171° |
| 2026-05-07 14:12 | 46.00724 | 8.70441 | 34992 ft | 456 kts | 170° |
| 2026-05-07 14:13 | 45.94613 | 8.72921 | 35005 ft | 455 kts | 170° |
| 2026-05-07 14:13 | 45.88542 | 8.75376 | 35001 ft | 455 kts | 170° |
| 2026-05-07 14:14 | 45.82471 | 8.77826 | 34996 ft | 455 kts | 170° |
| 2026-05-07 14:14 | 45.76390 | 8.80271 | 34996 ft | 455 kts | 170° |
| 2026-05-07 14:15 | 45.70309 | 8.82713 | 35005 ft | 455 kts | 170° |
| 2026-05-07 14:15 | 45.64218 | 8.85156 | 34989 ft | 453 kts | 170° |
| 2026-05-07 14:16 | 45.58163 | 8.87576 | 34989 ft | 452 kts | 171° |
| 2026-05-07 14:16 | 45.52090 | 8.89998 | 34978 ft | 451 kts | 171° |
| 2026-05-07 14:17 | 45.46057 | 8.92399 | 34971 ft | 452 kts | 171° |
| 2026-05-07 14:17 | 45.40015 | 8.94796 | 34971 ft | 451 kts | 171° |
| 2026-05-07 14:18 | 45.33942 | 8.97202 | 34965 ft | 451 kts | 171° |
| 2026-05-07 14:18 | 45.27886 | 8.99596 | 34965 ft | 450 kts | 171° |
| 2026-05-07 14:19 | 45.21883 | 9.01961 | 34963 ft | 449 kts | 171° |
| 2026-05-07 14:19 | 45.15867 | 9.04329 | 34965 ft | 449 kts | 171° |
| 2026-05-07 14:20 | 45.09856 | 9.06690 | 34970 ft | 448 kts | 171° |
| 2026-05-07 14:20 | 45.03853 | 9.09043 | 34970 ft | 448 kts | 171° |
| 2026-05-07 14:21 | 44.97877 | 9.11381 | 34970 ft | 448 kts | 171° |
| 2026-05-07 14:21 | 44.91848 | 9.13731 | 34984 ft | 449 kts | 171° |
| 2026-05-07 14:22 | 44.84836 | 9.16461 | 34981 ft | 448 kts | 171° |
| 2026-05-07 14:22 | 44.79857 | 9.18397 | 34990 ft | 447 kts | 171° |
| 2026-05-07 14:23 | 44.73853 | 9.20724 | 34985 ft | 446 kts | 172° |
| 2026-05-07 14:23 | 44.67864 | 9.23039 | 34994 ft | 446 kts | 171° |
| 2026-05-07 14:24 | 44.61921 | 9.25486 | 34998 ft | 450 kts | 168° |
| 2026-05-07 14:24 | 44.56046 | 9.28572 | 34998 ft | 452 kts | 166° |
| 2026-05-07 14:25 | 44.50137 | 9.31721 | 35000 ft | 452 kts | 166° |
| 2026-05-07 14:25 | 44.44276 | 9.34840 | 35003 ft | 452 kts | 166° |
| 2026-05-07 14:26 | 44.38356 | 9.37983 | 35002 ft | 451 kts | 166° |
| 2026-05-07 14:26 | 44.32531 | 9.41070 | 34995 ft | 450 kts | 166° |
| 2026-05-07 14:27 | 44.26661 | 9.44173 | 34993 ft | 450 kts | 166° |
| 2026-05-07 14:27 | 44.20771 | 9.47279 | 34996 ft | 450 kts | 166° |
| 2026-05-07 14:28 | 44.14875 | 9.50379 | 34991 ft | 450 kts | 166° |
| 2026-05-07 14:28 | 44.08965 | 9.53482 | 34997 ft | 451 kts | 166° |
| 2026-05-07 14:29 | 44.03095 | 9.56559 | 35000 ft | 451 kts | 166° |
| 2026-05-07 14:29 | 43.97161 | 9.59663 | 35000 ft | 451 kts | 166° |
| 2026-05-07 14:30 | 43.91302 | 9.62722 | 34999 ft | 450 kts | 166° |
| 2026-05-07 14:30 | 43.85441 | 9.65775 | 34996 ft | 449 kts | 167° |
| 2026-05-07 14:31 | 43.79546 | 9.68838 | 34996 ft | 448 kts | 167° |
| 2026-05-07 14:31 | 43.73673 | 9.71882 | 34993 ft | 448 kts | 167° |
| 2026-05-07 14:32 | 43.67836 | 9.74902 | 34994 ft | 448 kts | 167° |
| 2026-05-07 14:32 | 43.61955 | 9.77940 | 34995 ft | 449 kts | 167° |
| 2026-05-07 14:33 | 43.56062 | 9.80976 | 34994 ft | 450 kts | 167° |
| 2026-05-07 14:33 | 43.50223 | 9.83981 | 34994 ft | 449 kts | 167° |
| 2026-05-07 14:34 | 43.44367 | 9.86987 | 34996 ft | 448 kts | 167° |
| 2026-05-07 14:34 | 43.38544 | 9.90153 | 34990 ft | 452 kts | 164° |
| 2026-05-07 14:35 | 43.32909 | 9.94156 | 34985 ft | 458 kts | 158° |
| 2026-05-07 14:35 | 43.27345 | 9.98499 | 34988 ft | 459 kts | 158° |
| 2026-05-07 14:36 | 43.21794 | 10.02819 | 34982 ft | 458 kts | 159° |
| 2026-05-07 14:36 | 43.16259 | 10.07113 | 34977 ft | 458 kts | 159° |
| 2026-05-07 14:37 | 43.10699 | 10.11412 | 34986 ft | 459 kts | 158° |
| 2026-05-07 14:37 | 43.02336 | 10.17869 | 34995 ft | 458 kts | 158° |
| 2026-05-07 14:38 | 42.96750 | 10.22169 | 34989 ft | 457 kts | 159° |
| 2026-05-07 14:38 | 42.91148 | 10.26472 | 34988 ft | 458 kts | 159° |
| 2026-05-07 14:39 | 42.85597 | 10.30728 | 34993 ft | 457 kts | 159° |
| 2026-05-07 14:39 | 42.80047 | 10.34974 | 34986 ft | 457 kts | 159° |
| 2026-05-07 14:40 | 42.74486 | 10.39217 | 34981 ft | 456 kts | 159° |
| 2026-05-07 14:40 | 42.68948 | 10.43436 | 34977 ft | 456 kts | 159° |
| 2026-05-07 14:41 | 42.63393 | 10.47658 | 34978 ft | 457 kts | 159° |
| 2026-05-07 14:41 | 42.57818 | 10.51886 | 34984 ft | 456 kts | 159° |
| 2026-05-07 14:42 | 42.52238 | 10.56114 | 34977 ft | 455 kts | 159° |
| 2026-05-07 14:42 | 42.46613 | 10.60361 | 34982 ft | 455 kts | 159° |
| 2026-05-07 14:43 | 42.41043 | 10.64561 | 34977 ft | 455 kts | 159° |
| 2026-05-07 14:43 | 42.35492 | 10.68739 | 34983 ft | 454 kts | 160° |
| 2026-05-07 14:44 | 42.29907 | 10.72932 | 34979 ft | 455 kts | 160° |
| 2026-05-07 14:44 | 42.24339 | 10.77102 | 34977 ft | 455 kts | 160° |
| 2026-05-07 14:45 | 42.18762 | 10.81275 | 34645 ft | 452 kts | 160° |
| 2026-05-07 14:45 | 42.15930 | 10.83388 | 34408 ft | 450 kts | 160° |
| 2026-05-07 14:45 | 42.13135 | 10.85473 | 34142 ft | 449 kts | 160° |
| 2026-05-07 14:46 | 42.10325 | 10.87570 | 33866 ft | 447 kts | 160° |
| 2026-05-07 14:46 | 42.07530 | 10.89650 | 33582 ft | 446 kts | 160° |
| 2026-05-07 14:46 | 42.04744 | 10.91718 | 33317 ft | 447 kts | 160° |
| 2026-05-07 14:46 | 42.01936 | 10.93805 | 33042 ft | 448 kts | 160° |
| 2026-05-07 14:47 | 41.99135 | 10.95884 | 32768 ft | 447 kts | 160° |
| 2026-05-07 14:47 | 41.96303 | 10.97983 | 32496 ft | 448 kts | 160° |
| 2026-05-07 14:47 | 41.93507 | 11.00053 | 32212 ft | 448 kts | 160° |
| 2026-05-07 14:47 | 41.90691 | 11.02137 | 31942 ft | 449 kts | 160° |
| 2026-05-07 14:48 | 41.87870 | 11.04222 | 31674 ft | 450 kts | 160° |
| 2026-05-07 14:48 | 41.85054 | 11.06130 | 31356 ft | 442 kts | 168° |
| 2026-05-07 14:48 | 41.82083 | 11.06951 | 31092 ft | 421 kts | 185° |
| 2026-05-07 14:48 | 41.79240 | 11.06610 | 30826 ft | 404 kts | 200° |
| 2026-05-07 14:49 | 41.76557 | 11.05239 | 30561 ft | 391 kts | 214° |
| 2026-05-07 14:49 | 41.74346 | 11.03140 | 30286 ft | 384 kts | 224° |
| 2026-05-07 14:49 | 41.72238 | 11.00846 | 30022 ft | 383 kts | 223° |
| 2026-05-07 14:49 | 41.70137 | 10.98568 | 29743 ft | 381 kts | 223° |
| 2026-05-07 14:50 | 41.68054 | 10.96309 | 29466 ft | 381 kts | 223° |
| 2026-05-07 14:50 | 41.65947 | 10.94026 | 29200 ft | 380 kts | 224° |
| 2026-05-07 14:50 | 41.63832 | 10.91735 | 28934 ft | 380 kts | 224° |
| 2026-05-07 14:50 | 41.61728 | 10.89455 | 28654 ft | 378 kts | 223° |
| 2026-05-07 14:51 | 41.59604 | 10.87153 | 28386 ft | 378 kts | 223° |
| 2026-05-07 14:51 | 41.57525 | 10.84909 | 28127 ft | 377 kts | 223° |
| 2026-05-07 14:51 | 41.55398 | 10.82613 | 27844 ft | 376 kts | 223° |
| 2026-05-07 14:51 | 41.53278 | 10.80324 | 27569 ft | 377 kts | 223° |
| 2026-05-07 14:52 | 41.51226 | 10.78107 | 27310 ft | 376 kts | 223° |
| 2026-05-07 14:52 | 41.49150 | 10.75871 | 27044 ft | 375 kts | 223° |
| 2026-05-07 14:52 | 41.47082 | 10.73646 | 26773 ft | 376 kts | 224° |
| 2026-05-07 14:52 | 41.44996 | 10.71399 | 26512 ft | 375 kts | 223° |
| 2026-05-07 14:53 | 41.42904 | 10.69150 | 26245 ft | 375 kts | 223° |
| 2026-05-07 14:53 | 41.40796 | 10.66887 | 25973 ft | 374 kts | 224° |
| 2026-05-07 14:53 | 41.38703 | 10.64642 | 25705 ft | 373 kts | 224° |
| 2026-05-07 14:53 | 41.36625 | 10.62414 | 25437 ft | 373 kts | 223° |
| 2026-05-07 14:54 | 41.34541 | 10.60180 | 25168 ft | 372 kts | 223° |
| 2026-05-07 14:54 | 41.32508 | 10.58004 | 24908 ft | 372 kts | 223° |
| 2026-05-07 14:54 | 41.30450 | 10.55804 | 24646 ft | 371 kts | 224° |
| 2026-05-07 14:54 | 41.28367 | 10.53576 | 24375 ft | 370 kts | 224° |
| 2026-05-07 14:55 | 41.26306 | 10.51376 | 24110 ft | 371 kts | 224° |
| 2026-05-07 14:55 | 41.24268 | 10.49201 | 23852 ft | 370 kts | 223° |
| 2026-05-07 14:55 | 41.22200 | 10.46996 | 23583 ft | 369 kts | 224° |
| 2026-05-07 14:55 | 41.20147 | 10.44811 | 23318 ft | 369 kts | 223° |
| 2026-05-07 14:56 | 41.18118 | 10.42649 | 23060 ft | 368 kts | 223° |
| 2026-05-07 14:56 | 41.16080 | 10.40479 | 22801 ft | 367 kts | 223° |
| 2026-05-07 14:56 | 41.14068 | 10.38339 | 22544 ft | 365 kts | 223° |
| 2026-05-07 14:56 | 41.12030 | 10.36177 | 22285 ft | 365 kts | 223° |
| 2026-05-07 14:57 | 41.09999 | 10.34022 | 22025 ft | 363 kts | 222° |
| 2026-05-07 14:57 | 41.08002 | 10.31906 | 21766 ft | 362 kts | 222° |
| 2026-05-07 14:57 | 41.05997 | 10.29781 | 21498 ft | 360 kts | 222° |
| 2026-05-07 14:57 | 41.03992 | 10.27659 | 21175 ft | 360 kts | 221° |
| 2026-05-07 14:58 | 41.01978 | 10.25526 | 20746 ft | 358 kts | 221° |
| 2026-05-07 14:58 | 41.00009 | 10.23447 | 20293 ft | 355 kts | 221° |
| 2026-05-07 14:58 | 40.98063 | 10.21391 | 19833 ft | 353 kts | 221° |
| 2026-05-07 14:58 | 40.96100 | 10.19319 | 19365 ft | 350 kts | 220° |
| 2026-05-07 14:59 | 40.94373 | 10.16972 | 19045 ft | 345 kts | 237° |
| 2026-05-07 14:59 | 40.93402 | 10.13980 | 19037 ft | 348 kts | 256° |
| 2026-05-07 14:59 | 40.93255 | 10.10728 | 18787 ft | 351 kts | 272° |
| 2026-05-07 14:59 | 40.93567 | 10.07507 | 18037 ft | 358 kts | 275° |
| 2026-05-07 15:00 | 40.93910 | 10.04211 | 17205 ft | 366 kts | 275° |
| 2026-05-07 15:00 | 40.94257 | 10.00837 | 16567 ft | 367 kts | 276° |
| 2026-05-07 15:00 | 40.94597 | 9.97488 | 15956 ft | 367 kts | 276° |
| 2026-05-07 15:00 | 40.94931 | 9.94139 | 15386 ft | 365 kts | 276° |
| 2026-05-07 15:01 | 40.95026 | 9.90831 | 14831 ft | 361 kts | 262° |
| 2026-05-07 15:01 | 40.94275 | 9.87650 | 14314 ft | 345 kts | 242° |
| 2026-05-07 15:01 | 40.92997 | 9.85033 | 13859 ft | 333 kts | 235° |
| 2026-05-07 15:01 | 40.91670 | 9.82527 | 13616 ft | 325 kts | 235° |
| 2026-05-07 15:02 | 40.90370 | 9.80067 | 13460 ft | 321 kts | 235° |
| 2026-05-07 15:02 | 40.89086 | 9.77619 | 13314 ft | 317 kts | 235° |
| 2026-05-07 15:02 | 40.87815 | 9.75185 | 13154 ft | 310 kts | 235° |
| 2026-05-07 15:02 | 40.86590 | 9.72834 | 13011 ft | 297 kts | 235° |
| 2026-05-07 15:03 | 40.85423 | 9.70593 | 12924 ft | 283 kts | 235° |
| 2026-05-07 15:03 | 40.84327 | 9.68493 | 12939 ft | 270 kts | 235° |
| 2026-05-07 15:03 | 40.83242 | 9.66416 | 12943 ft | 270 kts | 235° |
| 2026-05-07 15:03 | 40.82160 | 9.64348 | 12941 ft | 270 kts | 235° |
| 2026-05-07 15:04 | 40.81088 | 9.62298 | 12950 ft | 270 kts | 235° |
| 2026-05-07 15:04 | 40.80008 | 9.60235 | 12951 ft | 270 kts | 235° |
| 2026-05-07 15:04 | 40.78913 | 9.58143 | 12949 ft | 271 kts | 235° |
| 2026-05-07 15:04 | 40.77807 | 9.56029 | 12957 ft | 271 kts | 236° |
| 2026-05-07 15:05 | 40.76940 | 9.53794 | 12588 ft | 274 kts | 253° |
| 2026-05-07 15:05 | 40.76510 | 9.51345 | 12118 ft | 274 kts | 258° |
| 2026-05-07 15:05 | 40.76139 | 9.48804 | 11612 ft | 273 kts | 258° |
| 2026-05-07 15:05 | 40.75758 | 9.46343 | 11110 ft | 272 kts | 257° |
| 2026-05-07 15:06 | 40.75345 | 9.43857 | 10662 ft | 268 kts | 256° |
| 2026-05-07 15:06 | 40.74921 | 9.41420 | 10286 ft | 268 kts | 256° |
| 2026-05-07 15:06 | 40.74478 | 9.38946 | 9925 ft | 267 kts | 256° |
| 2026-05-07 15:06 | 40.74040 | 9.36537 | 9485 ft | 264 kts | 255° |
| 2026-05-07 15:07 | 40.73599 | 9.34146 | 8805 ft | 267 kts | 255° |
| 2026-05-07 15:07 | 40.73154 | 9.31739 | 8177 ft | 266 kts | 255° |
| 2026-05-07 15:07 | 40.72705 | 9.29319 | 7589 ft | 264 kts | 255° |
| 2026-05-07 15:07 | 40.72332 | 9.26909 | 7015 ft | 262 kts | 257° |
| 2026-05-07 15:08 | 40.71683 | 9.24671 | 6431 ft | 258 kts | 239° |
| 2026-05-07 15:08 | 40.70728 | 9.22651 | 5868 ft | 256 kts | 237° |
| 2026-05-07 15:08 | 40.70097 | 9.20473 | 5274 ft | 256 kts | 268° |
| 2026-05-07 15:08 | 40.70549 | 9.18230 | 4708 ft | 253 kts | 307° |
| 2026-05-07 15:09 | 40.71913 | 9.16895 | 4322 ft | 237 kts | 348° |
| 2026-05-07 15:09 | 40.73491 | 9.17023 | 4022 ft | 218 kts | 30° |
| 2026-05-07 15:09 | 40.74531 | 9.18411 | 3797 ft | 209 kts | 64° |
| 2026-05-07 15:09 | 40.75010 | 9.20264 | 3786 ft | 209 kts | 77° |
| 2026-05-07 15:10 | 40.75376 | 9.22159 | 3781 ft | 209 kts | 76° |
| 2026-05-07 15:10 | 40.75773 | 9.24052 | 3778 ft | 209 kts | 71° |
| 2026-05-07 15:10 | 40.76373 | 9.25873 | 3773 ft | 210 kts | 62° |
| 2026-05-07 15:10 | 40.77162 | 9.27548 | 3773 ft | 211 kts | 56° |
| 2026-05-07 15:11 | 40.78036 | 9.29162 | 3777 ft | 211 kts | 55° |
| 2026-05-07 15:11 | 40.78913 | 9.30773 | 3775 ft | 211 kts | 56° |
| 2026-05-07 15:11 | 40.79772 | 9.32388 | 3730 ft | 212 kts | 57° |
| 2026-05-07 15:11 | 40.80624 | 9.34017 | 3464 ft | 213 kts | 57° |
| 2026-05-07 15:12 | 40.81472 | 9.35650 | 3143 ft | 207 kts | 57° |
| 2026-05-07 15:12 | 40.82270 | 9.37188 | 2904 ft | 192 kts | 56° |
| 2026-05-07 15:12 | 40.83035 | 9.38662 | 2563 ft | 183 kts | 56° |
| 2026-05-07 15:12 | 40.83741 | 9.40021 | 2278 ft | 172 kts | 56° |
| 2026-05-07 15:13 | 40.84414 | 9.41313 | 2003 ft | 160 kts | 56° |
| 2026-05-07 15:13 | 40.85038 | 9.42510 | 1735 ft | 146 kts | 56° |
| 2026-05-07 15:13 | 40.85602 | 9.43591 | 1497 ft | 133 kts | 56° |
| 2026-05-07 15:13 | 40.86132 | 9.44609 | 1319 ft | 133 kts | 56° |
| 2026-05-07 15:14 | 40.86668 | 9.45638 | 1126 ft | 133 kts | 56° |
| 2026-05-07 15:14 | 40.87203 | 9.46662 | 925 ft | 132 kts | 56° |
| 2026-05-07 15:14 | 40.87727 | 9.47663 | 723 ft | 132 kts | 56° |
| 2026-05-07 15:14 | 40.88249 | 9.48675 | 508 ft | 132 kts | 56° |
| 2026-05-07 15:15 | 40.88776 | 9.49657 | 313 ft | 132 kts | 55° |
| 2026-05-07 15:15 | 40.89292 | 9.50660 | 112 ft | 131 kts | 55° |
| 2026-05-07 15:15 | 40.89788 | 9.51610 | 49 ft | 103 kts | 55° |
| 2026-05-07 15:15 | 40.90046 | 9.52104 | 49 ft | 41 kts | 55° |
| 2026-05-07 15:16 | 40.90202 | 9.52399 | 49 ft | 36 kts | 56° |
| 2026-05-07 15:16 | 40.90330 | 9.52647 | 49 ft | 24 kts | 47° |
| 2026-05-07 15:16 | 40.90449 | 9.52630 | 49 ft | 19 kts | 281° |
| 2026-05-07 15:16 | 40.90436 | 9.52457 | 49 ft | 19 kts | 236° |
| 2026-05-07 15:17 | 40.90362 | 9.52315 | 49 ft | 18 kts | 235° |
| 2026-05-07 15:17 | 40.90287 | 9.52172 | 49 ft | 18 kts | 235° |
| 2026-05-07 15:17 | 40.90214 | 9.52034 | 49 ft | 17 kts | 235° |
| 2026-05-07 15:17 | 40.90178 | 9.51893 | 49 ft | 16 kts | 275° |
| 2026-05-07 15:18 | 40.90223 | 9.51798 | 49 ft | 10 kts | 298° |
| 2026-05-07 15:18 | 40.90203 | 9.51713 | 49 ft | 10 kts | 236° |
| 2026-05-07 15:18 | 40.90174 | 9.51662 | 49 ft | 2 kts | 214° |
| 2026-05-07 15:18 | 40.90152 | 9.51666 | 49 ft | 3 kts | 154° |
| 2026-05-07 15:19 | 40.90133 | 9.51681 | 49 ft | 2 kts | 129° |
| 2026-05-07 15:19 | 40.90133 | 9.51698 | 49 ft | 0 kts | 74° |
| 2026-05-07 15:19 | 40.90134 | 9.51703 | 49 ft | 0 kts | 83° |